CheckWX is a tool to help pilots better visualize weather data.  It is not intended as a substitute for an official pre-flight weather briefing.

15:05:02 UTC

KCQW METAR
Cheraw Municipal / Lynch Bellinger Field Airport
Cheraw, South Carolina, USA
Current

10 mins ago

KCQW 211455Z AUTO 25012KT 10SM CLR 32/22 A3003 RMK AO2
Observed
Jul-21 @ 14:55 UTC
Wind
  • 250° at 12 KTS
Visibility
10 SM
Flight Rules
VFR
Cloud Levels
  • Clear skies
Temperature
32°C / 90°F
Dewpoint
22°C / 72°F
Heat Index
36°C / 97°F
Humidity
55%
Altimeter
30.03" Hg
Pressure
1016.92 hPa
Previous

30 mins ago

KCQW 211435Z AUTO 26008KT 230V290 10SM CLR 31/22 A3003 RMK AO2
Observed
Jul-21 @ 14:35 UTC
Wind
  • 260° at 8 KTS
Visibility
10 SM
Flight Rules
VFR
Cloud Levels
  • Clear skies
Temperature
31°C / 88°F
Dewpoint
22°C / 72°F
Heat Index
35°C / 95°F
Humidity
59%
Altimeter
30.03" Hg
Pressure
1016.92 hPa
Previous

50 mins ago

KCQW 211415Z AUTO 27007KT 10SM CLR 30/23 A3004 RMK AO2
Observed
Jul-21 @ 14:15 UTC
Wind
  • 270° at 7 KTS
Visibility
10 SM
Flight Rules
VFR
Cloud Levels
  • Clear skies
Temperature
30°C / 86°F
Dewpoint
23°C / 73°F
Heat Index
34°C / 93°F
Humidity
66%
Altimeter
30.04" Hg
Pressure
1017.32 hPa